Terminal Aerodrome Forecast
Issued by NWS

Current Version | Previous Version | Text Only | Print | Product List | Glossary Off
Versions: 1 2 3 4 5 6 7 8 9 10 11 12 13 14

000
FTUS41 KPBZ 250500
TAFHLG
TAF
KHLG 250539Z 2506/2606 25010G23KT P6SM -RASN BKN022
     FM251200 24014G24KT P6SM OVC022
     FM251800 25012G22KT P6SM BKN035=

USA.gov is the U.S. government's official web portal to all federal, state and local government web resources and services.